Weather in selectable METAR weather stations

1) Select the Continent / Group:

[Europe]  [Asia]  [Africa]  [North America]  [South America]  
[Central America and Caribbean]  [Oceania]  [Antarctica]  
2) Select the Weather station (City):


METAR = YBAS 131500Z AUTO 32004KT 9999 // NCD 09/M00 Q1020

STATIONYBAS
NAMEAlice Springs Arpt, NT, AU
OBSERVED14.05.2021 00:30 (13.05.2021 15:00 UTC), 29 min ago
TEMPERATURE9.0°C ( 48°F)
WINDCHILL7.9 °C (46 °F)
WINDNW (320 degrees) at 5 MPH (4 knots; 2.1 m/s)
HUMIDITY53%
PRESSURE1020 hPa
Click here to search the weather station or to give the station identifier
(four-character ICAO Location Indicator) for weather data.